Time;durP1;ratioP1;P1;durP2;ratioP2;P2;SDS_P1;SDS_P2;PMS_P1;PMS_P2;Temp;Humidity;BMP_temperature;BMP_pressure;BME280_temperature;BME280_humidity;BME280_pressure;Samples;Min_cycle;Max_cycle;Signal;HPM_P1;HPM_P2
2021/12/22 00:02:20;;;;;;;16.13;2.60;;;19.60;41.40;;;;;;5090908;28;20077;-67
2021/12/22 00:04:49;;;;;;;20.98;3.42;;;19.50;42.30;;;;;;5089236;28;20433;-65
2021/12/22 00:07:16;;;;;;;22.48;3.17;;;19.40;40.90;;;;;;5088750;28;20550;-65
2021/12/22 00:09:43;;;;;;;27.00;3.80;;;19.30;41.20;;;;;;5087733;28;20081;-64
2021/12/22 00:12:10;;;;;;;34.08;3.13;;;19.30;41.30;;;;;;5088672;28;20164;-65
2021/12/22 00:14:37;;;;;;;25.40;3.13;;;19.30;41.70;;;;;;5089198;28;20075;-64
2021/12/22 00:17:04;;;;;;;17.45;2.80;;;19.20;42.40;;;;;;5088887;28;20450;-65
2021/12/22 00:19:30;;;;;;;17.23;3.72;;;19.10;42.10;;;;;;5089470;28;20080;-65
2021/12/22 00:21:56;;;;;;;;;;;19.10;42.20;;;;;;5088778;28;20123;-66
2021/12/22 00:24:23;;;;;;;28.70;3.30;;;19.00;43.30;;;;;;5089444;28;19972;-65
2021/12/22 00:26:49;;;;;;;;;;;19.00;43.80;;;;;;5089354;28;20077;-66
2021/12/22 00:29:17;;;;;;;34.55;4.13;;;18.90;44.60;;;;;;5089172;28;19960;-65
2021/12/22 00:31:56;;;;;;;32.40;3.20;;;18.80;44.50;;;;;;5089862;28;20494;-66
2021/12/22 00:34:25;;;;;;;53.72;4.40;;;18.80;45.10;;;;;;5089538;28;20065;-64
2021/12/22 00:36:52;;;;;;;69.18;20.90;;;18.70;45.10;;;;;;5089862;28;20096;-65
2021/12/22 00:39:18;;;;;;;46.80;12.55;;;18.70;45.00;;;;;;5087704;28;20544;-64
2021/12/22 00:41:45;;;;;;;40.70;11.25;;;18.60;45.80;;;;;;5088431;28;20092;-64
2021/12/22 00:44:13;;;;;;;26.13;8.88;;;18.50;46.50;;;;;;5088734;28;20148;-64
2021/12/22 00:46:39;;;;;;;19.55;5.47;;;18.40;46.50;;;;;;5087815;28;20077;-64
2021/12/22 00:49:05;;;;;;;;;;;18.30;46.60;;;;;;5087400;28;20072;-63
2021/12/22 00:51:32;;;;;;;19.77;5.63;;;18.30;46.90;;;;;;5089422;28;19956;-65
2021/12/22 00:53:58;;;;;;;;;;;18.20;45.90;;;;;;5089482;28;20550;-63
2021/12/22 00:56:24;;;;;;;30.13;4.22;;;18.20;46.20;;;;;;5088825;28;19964;-64
2021/12/22 00:58:51;;;;;;;30.67;3.80;;;18.10;46.00;;;;;;5088227;28;20162;-65
2021/12/22 01:01:17;;;;;;;;;;;18.10;45.90;;;;;;5089595;28;20573;-64
2021/12/22 01:03:43;;;;;;;37.90;4.05;;;18.10;44.80;;;;;;5089995;28;20338;-64
2021/12/22 01:06:09;;;;;;;;;;;18.00;46.60;;;;;;5089799;28;20167;-63
2021/12/22 01:08:35;;;;;;;19.33;3.42;;;18.00;46.50;;;;;;5087929;28;20083;-65
2021/12/22 01:11:02;;;;;;;26.67;3.42;;;17.90;47.20;;;;;;5088608;28;20165;-64
2021/12/22 01:13:29;;;;;;;39.28;4.47;;;17.90;47.80;;;;;;5086759;28;20096;-62
2021/12/22 01:15:56;;;;;;;15.27;3.35;;;17.80;48.30;;;;;;5088860;28;20073;-64
2021/12/22 01:18:32;;;;;;;;;;;17.80;48.20;;;;;;5068612;28;20080;-63
2021/12/22 01:23:26;;;;;;;29.27;4.25;;;17.70;47.30;;;;;;5089338;28;20162;-63
2021/12/22 01:25:53;;;;;;;34.95;4.82;;;17.70;47.20;;;;;;5072341;28;20724;-62
2021/12/22 01:28:24;;;;;;;44.47;5.72;;;17.70;47.60;;;;;;5088990;28;20542;-64
2021/12/22 01:30:52;;;;;;;31.88;4.60;;;17.60;47.50;;;;;;5088912;28;20094;-63
2021/12/22 01:33:19;;;;;;;18.05;4.25;;;17.60;48.60;;;;;;5089419;28;20446;-64
2021/12/22 01:35:46;;;;;;;32.47;4.72;;;17.60;48.00;;;;;;5089991;28;20296;-64
2021/12/22 01:38:12;;;;;;;32.60;4.30;;;17.60;48.40;;;;;;5087993;28;20073;-64
2021/12/22 01:40:43;;;;;;;32.53;4.43;;;17.60;48.70;;;;;;5087922;28;20233;-62
2021/12/22 01:43:10;;;;;;;28.20;5.35;;;17.60;49.00;;;;;;5090146;28;20072;-62
2021/12/22 01:45:54;;;;;;;41.03;6.88;;;17.50;48.50;;;;;;5093534;28;20100;-63
2021/12/22 01:51:55;;;;;;;42.13;8.73;;;17.40;47.90;;;;;;5092093;28;20121;-69
2021/12/22 01:54:21;;;;;;;43.05;8.88;;;17.40;48.90;;;;;;5090681;28;20089;-69
2021/12/22 01:56:48;;;;;;;;;;;17.30;49.30;;;;;;5092200;28;20100;-69
2021/12/22 01:59:16;;;;;;;97.07;44.95;;;17.30;48.70;;;;;;5091806;28;19964;-69
2021/12/22 02:01:42;;;;;;;89.60;30.08;;;17.30;50.10;;;;;;5092853;28;20084;-68
2021/12/22 02:04:14;;;;;;;67.93;31.70;;;17.30;49.80;;;;;;5093433;28;20083;-69
2021/12/22 02:06:42;;;;;;;56.08;23.23;;;17.20;50.00;;;;;;5092281;28;20085;-68
2021/12/22 02:09:17;;;;;;;60.78;21.23;;;17.30;49.50;;;;;;5091680;28;20072;-67
2021/12/22 02:11:43;;;;;;;52.28;16.83;;;17.20;48.00;;;;;;5091910;28;20076;-70
2021/12/22 02:14:09;;;;;;;;;;;17.20;49.30;;;;;;5075389;28;20556;-68
2021/12/22 02:16:39;;;;;;;60.15;17.65;;;17.20;49.80;;;;;;5075907;28;19960;-70
2021/12/22 02:19:08;;;;;;;57.65;15.40;;;17.20;50.10;;;;;;5092074;28;20539;-69
2021/12/22 02:21:45;;;;;;;52.70;14.40;;;17.00;50.20;;;;;;5058402;28;20123;-68
2021/12/22 02:24:12;;;;;;;44.53;12.35;;;17.00;50.00;;;;;;5091647;28;20599;-66
2021/12/22 02:26:47;;;;;;;45.95;12.70;;;17.00;49.50;;;;;;5110096;28;20213;-69
2021/12/22 02:29:34;;;;;;;54.55;12.35;;;17.00;49.60;;;;;;5078369;28;20076;-67
2021/12/22 02:32:08;;;;;;;51.70;11.35;;;16.90;49.30;;;;;;5095782;28;20664;-69
2021/12/22 02:34:41;;;;;;;43.25;10.30;;;16.90;50.10;;;;;;5097625;28;20088;-68
2021/12/22 02:37:14;;;;;;;52.85;10.80;;;16.90;49.30;;;;;;5094325;28;20072;-67
2021/12/22 02:39:50;;;;;;;42.95;11.73;;;16.80;48.50;;;;;;5098087;28;20073;-66
2021/12/22 02:42:20;;;;;;;39.05;11.05;;;16.80;49.20;;;;;;5096247;28;20118;-67
2021/12/22 02:44:47;;;;;;;57.63;15.45;;;16.80;49.00;;;;;;5092816;28;20129;-69
2021/12/22 02:47:19;;;;;;;68.05;17.23;;;16.70;48.80;;;;;;5098829;28;20180;-68
2021/12/22 02:49:46;;;;;;;80.18;17.58;;;16.70;49.40;;;;;;5092662;28;20096;-68
2021/12/22 02:52:12;;;;;;;78.53;17.80;;;16.70;49.80;;;;;;5095733;28;20092;-68
2021/12/22 02:54:50;;;;;;;65.57;16.52;;;16.70;50.10;;;;;;5092024;28;20090;-67
2021/12/22 02:57:34;;;;;;;68.97;15.27;;;16.70;49.80;;;;;;5090265;28;20438;-67
2021/12/22 03:03:05;;;;;;;57.88;14.43;;;16.60;50.10;;;;;;5090258;28;20122;-63
2021/12/22 03:05:33;;;;;;;69.47;13.55;;;16.60;51.00;;;;;;5089586;28;20073;-65
2021/12/22 03:08:00;;;;;;;54.65;14.02;;;16.60;52.20;;;;;;5091580;28;20072;-63
2021/12/22 03:10:26;;;;;;;;;;;16.50;50.80;;;;;;5092179;28;20087;-63
2021/12/22 03:12:55;;;;;;;68.75;13.50;;;16.50;49.90;;;;;;5090454;28;19956;-63
2021/12/22 03:15:22;;;;;;;70.32;14.93;;;16.50;50.30;;;;;;5091049;28;20539;-63
2021/12/22 03:17:49;;;;;;;55.60;13.60;;;16.50;50.80;;;;;;5089804;28;20108;-63
2021/12/22 03:20:16;;;;;;;59.15;13.05;;;16.50;50.60;;;;;;5090134;28;20195;-64
2021/12/22 03:22:45;;;;;;;63.58;12.40;;;16.50;50.20;;;;;;5090872;28;20068;-64
2021/12/22 03:25:17;;;;;;;72.82;14.00;;;16.50;50.00;;;;;;5090091;28;20585;-63
2021/12/22 03:27:46;;;;;;;53.55;13.50;;;16.50;50.80;;;;;;5089506;28;20080;-63
2021/12/22 03:30:14;;;;;;;68.53;13.95;;;16.50;50.50;;;;;;5091665;28;20433;-64
2021/12/22 03:32:40;;;;;;;104.25;15.10;;;16.50;51.10;;;;;;5091773;28;20076;-62
2021/12/22 03:35:07;;;;;;;;;;;16.50;51.10;;;;;;5089877;28;20201;-63
2021/12/22 03:37:34;;;;;;;66.03;15.52;;;16.50;50.70;;;;;;5090621;28;19956;-62
2021/12/22 03:40:01;;;;;;;59.92;15.13;;;16.50;51.00;;;;;;5072602;28;20073;-64
2021/12/22 03:42:27;;;;;;;77.20;15.85;;;16.50;50.50;;;;;;5094726;28;20072;-64
2021/12/22 03:44:53;;;;;;;;;;;16.50;50.90;;;;;;5091920;28;20079;-66
2021/12/22 03:47:21;;;;;;;56.95;14.82;;;16.50;51.70;;;;;;5104690;28;19956;-66
2021/12/22 03:49:47;;;;;;;65.88;17.75;;;16.50;51.20;;;;;;5088209;28;20088;-67
2021/12/22 03:52:14;;;;;;;55.08;17.48;;;16.50;50.50;;;;;;5089384;28;20092;-66
2021/12/22 03:54:41;;;;;;;73.22;19.30;;;16.50;51.20;;;;;;5088730;28;20080;-66
2021/12/22 03:57:07;;;;;;;79.75;21.33;;;16.50;51.30;;;;;;5072800;28;20083;-66
2021/12/22 03:59:33;;;;;;;;;;;16.50;51.00;;;;;;5090426;28;20080;-65
2021/12/22 04:01:59;;;;;;;69.13;19.10;;;16.50;51.00;;;;;;5089958;28;19978;-65
2021/12/22 04:04:26;;;;;;;70.43;17.73;;;16.40;51.60;;;;;;5087989;28;20122;-65
2021/12/22 04:06:52;;;;;;;;;;;16.40;51.30;;;;;;5091688;28;20152;-65
2021/12/22 04:09:26;;;;;;;70.20;18.23;;;16.40;50.90;;;;;;5072837;28;19960;-67
2021/12/22 04:11:52;;;;;;;59.30;18.58;;;16.30;51.00;;;;;;5089833;28;20076;-66
2021/12/22 04:14:18;;;;;;;;;;;16.30;51.20;;;;;;5089744;28;20161;-66
2021/12/22 04:16:45;;;;;;;60.22;19.92;;;16.20;51.40;;;;;;5089251;28;20482;-64
2021/12/22 04:19:11;;;;;;;;;;;16.20;51.70;;;;;;5088884;28;20492;-65
2021/12/22 04:21:37;;;;;;;66.25;18.88;;;16.20;52.30;;;;;;5089477;28;19995;-66
2021/12/22 04:24:06;;;;;;;;;;;16.10;52.60;;;;;;5071748;28;20544;-65
2021/12/22 04:26:32;;;;;;;66.97;19.67;;;16.00;53.00;;;;;;5089220;28;19957;-64
2021/12/22 04:28:59;;;;;;;76.40;19.17;;;15.90;52.90;;;;;;5089143;28;20072;-66
2021/12/22 04:31:26;;;;;;;56.63;17.77;;;15.90;53.40;;;;;;5087775;28;20550;-65
2021/12/22 04:33:52;;;;;;;;;;;15.90;53.20;;;;;;5088527;28;20505;-67
2021/12/22 04:36:19;;;;;;;63.53;18.20;;;15.80;53.00;;;;;;5089748;28;19957;-64
2021/12/22 04:38:45;;;;;;;72.65;18.73;;;15.80;53.20;;;;;;5089654;28;20535;-64
2021/12/22 04:41:11;;;;;;;66.80;18.60;;;15.80;53.40;;;;;;5089465;28;20092;-66
2021/12/22 04:43:38;;;;;;;71.25;19.75;;;15.70;53.30;;;;;;5088658;28;20095;-64
2021/12/22 04:46:04;;;;;;;;;;;15.80;53.70;;;;;;5091980;28;20068;-67
2021/12/22 04:48:31;;;;;;;78.75;20.13;;;15.70;53.40;;;;;;5095367;28;19964;-66
2021/12/22 04:50:58;;;;;;;79.88;20.75;;;15.70;54.30;;;;;;5089348;28;20084;-66
2021/12/22 04:53:27;;;;;;;;;;;15.60;54.70;;;;;;5089157;28;20080;-66
2021/12/22 04:55:54;;;;;;;72.38;20.05;;;15.60;54.70;;;;;;5088323;28;20003;-65
2021/12/22 04:58:20;;;;;;;75.43;22.73;;;15.60;54.60;;;;;;5087403;28;20089;-67
2021/12/22 05:00:46;;;;;;;;;;;15.50;54.80;;;;;;5089507;28;20096;-66
2021/12/22 05:03:13;;;;;;;71.53;19.38;;;15.40;55.00;;;;;;5088754;28;20374;-64
2021/12/22 05:05:39;;;;;;;71.93;23.77;;;15.40;55.50;;;;;;5089644;28;20073;-65
2021/12/22 05:08:05;;;;;;;73.90;21.13;;;15.40;54.50;;;;;;5073225;28;20325;-64
2021/12/22 05:10:32;;;;;;;79.13;25.00;;;15.40;54.40;;;;;;5089535;28;20110;-64
2021/12/22 05:12:58;;;;;;;;;;;15.30;54.40;;;;;;5088251;28;20434;-66
2021/12/22 05:15:28;;;;;;;82.75;24.48;;;15.30;54.80;;;;;;5088359;28;19963;-66
2021/12/22 05:20:23;;;;;;;77.03;23.63;;;15.30;55.10;;;;;;5089863;28;20101;-66
2021/12/22 05:22:50;;;;;;;90.07;23.13;;;15.30;55.10;;;;;;5087753;28;20076;-64
2021/12/22 05:25:17;;;;;;;71.93;23.40;;;15.30;54.60;;;;;;5087828;28;20077;-66
2021/12/22 05:27:43;;;;;;;76.00;22.95;;;15.30;55.30;;;;;;5088596;28;20081;-67
2021/12/22 05:30:12;;;;;;;71.75;21.60;;;15.30;55.90;;;;;;5088585;28;20476;-66
2021/12/22 05:32:38;;;;;;;73.75;22.58;;;15.20;55.70;;;;;;5071251;28;20077;-65
2021/12/22 05:35:08;;;;;;;70.18;23.20;;;15.20;56.00;;;;;;5087410;28;20072;-68
2021/12/22 05:37:36;;;;;;;78.53;24.35;;;15.10;56.20;;;;;;5088340;28;20107;-66
2021/12/22 05:40:03;;;;;;;85.28;23.83;;;15.10;57.00;;;;;;5088624;28;20461;-67
2021/12/22 05:42:29;;;;;;;69.53;21.55;;;15.10;56.80;;;;;;5089807;28;20159;-65
2021/12/22 05:44:56;;;;;;;71.85;21.17;;;15.10;56.90;;;;;;5089694;28;20099;-66
2021/12/22 05:47:22;;;;;;;;;;;15.10;57.10;;;;;;5088661;28;20081;-65
2021/12/22 05:49:49;;;;;;;57.25;19.15;;;15.10;56.90;;;;;;5088887;28;20015;-65
2021/12/22 05:52:16;;;;;;;53.40;17.90;;;15.10;57.30;;;;;;5087208;28;20112;-64
2021/12/22 05:54:42;;;;;;;61.45;16.40;;;15.10;56.50;;;;;;5089850;28;20080;-65
2021/12/22 05:57:08;;;;;;;;;;;15.00;56.40;;;;;;5089500;28;20073;-65
2021/12/22 05:59:36;;;;;;;60.47;17.63;;;15.00;56.70;;;;;;5088261;28;20051;-64
2021/12/22 06:02:03;;;;;;;52.65;17.52;;;15.00;57.10;;;;;;5087395;28;20092;-64
2021/12/22 06:04:29;;;;;;;65.57;16.35;;;15.00;57.40;;;;;;5087218;28;20084;-65
2021/12/22 06:06:55;;;;;;;;;;;15.00;57.40;;;;;;5090187;28;20090;-66
2021/12/22 06:09:22;;;;;;;48.10;16.83;;;14.90;57.50;;;;;;5088213;28;20068;-64
2021/12/22 06:11:48;;;;;;;59.65;17.60;;;14.90;58.00;;;;;;5087535;28;20077;-65
2021/12/22 06:14:15;;;;;;;55.75;16.48;;;14.90;57.40;;;;;;5088420;28;20177;-66
2021/12/22 06:16:41;;;;;;;58.42;16.75;;;14.80;56.90;;;;;;5086952;28;20085;-63
2021/12/22 06:19:09;;;;;;;;;;;14.80;57.60;;;;;;5089077;28;20423;-66
2021/12/22 06:21:36;;;;;;;73.85;17.10;;;14.80;57.50;;;;;;5087644;28;20023;-62
2021/12/22 06:24:02;;;;;;;;;;;14.80;57.70;;;;;;5088193;28;20442;-64
2021/12/22 06:26:28;;;;;;;62.85;17.38;;;14.80;57.40;;;;;;5088472;28;19972;-63
2021/12/22 06:28:54;;;;;;;;;;;14.80;57.50;;;;;;5090967;28;20073;-64
2021/12/22 06:31:21;;;;;;;54.78;16.48;;;14.80;57.50;;;;;;5091988;28;20079;-62
2021/12/22 06:33:47;;;;;;;;;;;14.80;57.50;;;;;;5092100;28;20535;-63
2021/12/22 06:36:13;;;;;;;49.78;14.45;;;14.80;57.20;;;;;;5091294;28;19980;-63
2021/12/22 06:38:40;;;;;;;49.83;15.23;;;14.80;57.30;;;;;;5093597;28;20430;-63
2021/12/22 06:41:07;;;;;;;58.97;15.52;;;14.80;57.50;;;;;;5091928;28;20092;-64
2021/12/22 06:43:34;;;;;;;45.78;15.57;;;14.80;57.20;;;;;;5074619;28;20071;-63
2021/12/22 06:46:00;;;;;;;59.35;15.57;;;14.80;57.20;;;;;;5092637;28;20092;-65
2021/12/22 06:48:26;;;;;;;63.83;16.17;;;14.80;57.20;;;;;;5102593;28;20076;-63
2021/12/22 06:50:53;;;;;;;;;;;14.80;57.50;;;;;;5091206;28;20133;-63
2021/12/22 06:53:19;;;;;;;65.00;17.50;;;14.70;57.30;;;;;;5095025;28;19972;-64
2021/12/22 06:55:46;;;;;;;56.25;17.95;;;14.70;58.00;;;;;;5091686;28;20442;-63
2021/12/22 06:58:12;;;;;;;;;;;14.80;57.90;;;;;;5089843;28;20135;-63
2021/12/22 07:00:38;;;;;;;55.00;18.40;;;14.70;58.80;;;;;;5092286;28;20025;-63
2021/12/22 07:03:05;;;;;;;;;;;14.70;58.10;;;;;;5091518;28;20104;-63
2021/12/22 07:05:32;;;;;;;68.18;15.85;;;14.70;58.10;;;;;;5090122;28;19956;-61
2021/12/22 07:07:58;;;;;;;43.63;14.68;;;14.60;57.70;;;;;;5090792;28;20183;-63
2021/12/22 07:10:25;;;;;;;;;;;14.60;57.60;;;;;;5073612;28;20107;-64
2021/12/22 07:12:51;;;;;;;63.97;14.65;;;14.60;57.70;;;;;;5090628;28;19956;-62
2021/12/22 07:15:18;;;;;;;;;;;14.60;57.80;;;;;;5092644;28;20651;-63
2021/12/22 07:17:47;;;;;;;59.27;13.27;;;14.60;57.60;;;;;;5090438;28;19971;-65
2021/12/22 07:20:15;;;;;;;58.55;12.85;;;14.60;57.50;;;;;;5089129;28;20105;-64
2021/12/22 07:22:42;;;;;;;45.28;14.18;;;14.50;57.50;;;;;;5089079;28;20530;-64
2021/12/22 07:25:10;;;;;;;53.47;15.05;;;14.60;56.90;;;;;;5090187;28;20076;-63
2021/12/22 07:27:36;;;;;;;43.25;14.80;;;14.60;57.00;;;;;;5073229;28;20096;-62
2021/12/22 07:30:03;;;;;;;;;;;14.60;57.00;;;;;;5091402;28;20087;-64
2021/12/22 07:32:30;;;;;;;50.35;14.43;;;14.60;57.00;;;;;;5088645;28;20014;-63
2021/12/22 07:35:00;;;;;;;;;;;14.60;56.70;;;;;;5090979;28;20214;-62
2021/12/22 07:37:43;;;;;;;38.85;13.77;;;14.60;56.50;;;;;;5073312;28;20482;-62
2021/12/22 07:40:12;;;;;;;43.58;14.50;;;14.60;56.70;;;;;;5090115;28;20491;-62
2021/12/22 07:42:39;;;;;;;40.63;14.50;;;14.50;57.80;;;;;;5088723;28;20084;-65
2021/12/22 07:45:07;;;;;;;42.35;12.98;;;14.50;57.30;;;;;;5088115;28;20267;-64
2021/12/22 07:47:33;;;;;;;45.85;14.77;;;14.50;57.60;;;;;;5087755;28;20582;-63
2021/12/22 07:50:00;;;;;;;38.72;14.77;;;14.40;57.70;;;;;;5089758;28;20088;-64
2021/12/22 07:52:27;;;;;;;;;;;14.40;57.70;;;;;;5072985;28;20083;-64
2021/12/22 07:54:55;;;;;;;46.60;15.52;;;14.40;57.80;;;;;;5092804;28;20334;-69
2021/12/22 07:57:21;;;;;;;58.17;17.75;;;14.30;57.80;;;;;;5088620;28;20073;-66
2021/12/22 07:59:48;;;;;;;47.92;15.88;;;14.30;58.30;;;;;;5072722;28;20077;-65
2021/12/22 08:02:15;;;;;;;46.53;16.30;;;14.30;58.50;;;;;;5089166;28;20088;-65
2021/12/22 08:04:42;;;;;;;53.30;17.52;;;14.30;58.50;;;;;;5071991;28;20068;-66
2021/12/22 08:07:08;;;;;;;49.10;19.15;;;14.30;58.40;;;;;;5089754;28;20104;-66
2021/12/22 08:09:35;;;;;;;55.55;18.50;;;14.30;58.60;;;;;;5073360;28;20065;-65
2021/12/22 08:12:05;;;;;;;55.70;18.83;;;14.30;58.80;;;;;;5090212;28;20072;-63
2021/12/22 08:14:36;;;;;;;58.95;19.67;;;14.30;59.00;;;;;;5088490;28;20439;-65
2021/12/22 08:17:04;;;;;;;49.50;20.15;;;14.30;59.00;;;;;;5091215;28;20675;-66
2021/12/22 08:19:30;;;;;;;60.42;20.15;;;14.20;59.20;;;;;;5089505;28;20075;-64
2021/12/22 08:21:56;;;;;;;;;;;14.20;59.20;;;;;;5072819;28;20117;-66
2021/12/22 08:24:23;;;;;;;67.07;21.73;;;14.20;58.90;;;;;;5072755;28;20006;-63
2021/12/22 08:26:51;;;;;;;72.00;20.30;;;14.10;58.50;;;;;;5088525;28;20073;-66
2021/12/22 08:29:18;;;;;;;68.95;21.15;;;14.10;59.50;;;;;;5088485;28;20084;-67
2021/12/22 08:31:45;;;;;;;68.03;20.20;;;14.10;60.10;;;;;;5092179;28;20083;-64
2021/12/22 08:34:15;;;;;;;70.82;21.98;;;14.10;60.30;;;;;;5089490;28;20104;-68
2021/12/22 08:39:27;;;;;;;60.05;19.65;;;14.00;60.00;;;;;;5090032;28;20129;-65
2021/12/22 08:41:53;;;;;;;;;;;14.00;59.90;;;;;;5088932;28;20124;-65
2021/12/22 08:44:19;;;;;;;73.50;21.27;;;13.90;60.10;;;;;;5088205;28;19956;-65
2021/12/22 08:46:49;;;;;;;63.35;18.45;;;13.90;60.00;;;;;;5089630;28;20100;-66
2021/12/22 08:49:17;;;;;;;64.47;19.80;;;13.90;60.00;;;;;;5088518;28;20119;-65
2021/12/22 08:51:44;;;;;;;71.50;21.00;;;13.90;60.30;;;;;;5087401;28;20073;-66
2021/12/22 08:54:11;;;;;;;66.47;20.10;;;13.90;60.30;;;;;;5087090;28;20116;-66
2021/12/22 08:56:38;;;;;;;65.85;19.60;;;13.90;60.00;;;;;;5071583;28;20520;-66
2021/12/22 08:59:06;;;;;;;63.90;20.25;;;13.90;59.80;;;;;;5088637;28;20088;-67
2021/12/22 09:01:32;;;;;;;63.63;20.60;;;13.90;60.80;;;;;;5089411;28;20554;-66
2021/12/22 09:03:58;;;;;;;;;;;13.90;60.30;;;;;;5089004;28;20089;-65
2021/12/22 09:06:25;;;;;;;64.05;20.23;;;13.90;59.20;;;;;;5090122;28;19957;-66
2021/12/22 09:08:52;;;;;;;68.47;20.50;;;13.80;58.90;;;;;;5089608;28;20102;-65
2021/12/22 09:11:20;;;;;;;67.97;19.77;;;13.80;60.20;;;;;;5087979;28;20079;-66
2021/12/22 09:13:46;;;;;;;65.55;19.27;;;13.90;60.30;;;;;;5070543;28;20096;-63
2021/12/22 09:16:13;;;;;;;57.83;19.40;;;13.80;59.70;;;;;;5089333;28;20436;-64
2021/12/22 09:18:40;;;;;;;52.42;17.60;;;13.80;59.20;;;;;;5088380;28;20438;-64
2021/12/22 09:21:10;;;;;;;54.65;17.23;;;13.70;58.60;;;;;;5087388;28;20112;-66
2021/12/22 09:23:37;;;;;;;52.15;17.67;;;13.70;58.40;;;;;;5088205;28;20740;-67
2021/12/22 09:26:05;;;;;;;59.95;17.35;;;13.70;58.60;;;;;;5089175;28;20085;-65
2021/12/22 09:28:32;;;;;;;63.38;17.63;;;13.70;58.60;;;;;;5087385;28;20505;-65
2021/12/22 09:30:58;;;;;;;49.78;16.83;;;13.80;59.30;;;;;;5089516;28;20072;-65
2021/12/22 09:33:25;;;;;;;58.35;17.15;;;13.70;59.40;;;;;;5071908;28;20085;-64
2021/12/22 09:35:53;;;;;;;52.38;17.42;;;13.80;59.00;;;;;;5087357;28;20531;-65
2021/12/22 09:38:20;;;;;;;47.65;15.40;;;13.70;58.70;;;;;;5088415;28;20084;-65
2021/12/22 09:40:46;;;;;;;42.35;15.60;;;13.80;59.30;;;;;;5089038;28;20096;-65
2021/12/22 09:43:13;;;;;;;40.03;14.90;;;13.80;58.40;;;;;;5088219;28;20088;-65
2021/12/22 09:45:47;;;;;;;48.47;14.15;;;13.70;58.10;;;;;;5088179;28;20065;-66
2021/12/22 09:52:15;;;;;;;31.95;11.63;;;13.70;57.40;;;;;;5089728;28;20177;-65
2021/12/22 09:53:43;;;;;;;32.50;11.77;;;13.70;57.20;;;;;;5073886;28;20068;-65
2021/12/22 09:56:11;;;;;;;35.10;10.82;;;13.60;56.50;;;;;;5086670;28;20121;-66
2021/12/22 09:58:41;;;;;;;43.70;11.07;;;13.60;57.10;;;;;;5087973;28;20527;-64
2021/12/22 10:01:08;;;;;;;35.45;11.60;;;13.60;57.70;;;;;;5070377;28;20130;-65
2021/12/22 10:03:34;;;;;;;34.47;10.20;;;13.60;57.60;;;;;;5089366;28;20076;-66
2021/12/22 10:06:02;;;;;;;35.25;10.30;;;13.60;58.10;;;;;;5091810;28;20093;-66
2021/12/22 10:08:29;;;;;;;42.70;11.30;;;13.60;57.70;;;;;;5075580;28;20084;-66
2021/12/22 10:11:07;;;;;;;31.52;10.18;;;13.50;57.10;;;;;;5092081;28;20138;-65
2021/12/22 10:13:34;;;;;;;28.77;9.55;;;13.50;58.00;;;;;;5073737;28;20088;-65
2021/12/22 10:16:24;;;;;;;31.85;11.40;;;13.50;58.30;;;;;;5090104;28;20080;-66
2021/12/22 10:19:04;;;;;;;34.33;10.60;;;13.40;58.40;;;;;;5090991;28;20168;-64
2021/12/22 10:21:33;;;;;;;44.42;11.60;;;13.40;58.10;;;;;;5089871;28;20199;-66
2021/12/22 10:24:05;;;;;;;36.72;11.52;;;13.40;58.10;;;;;;5057538;28;20072;-65
2021/12/22 10:26:31;;;;;;;35.08;11.70;;;13.40;58.50;;;;;;5091079;28;20079;-65
2021/12/22 10:29:06;;;;;;;35.08;11.70;;;13.40;58.50;;;;;;5090744;28;20187;-66
2021/12/22 10:31:45;;;;;;;33.38;10.90;;;13.40;58.60;;;;;;5074831;28;20076;-65
2021/12/22 10:34:18;;;;;;;30.23;10.20;;;13.40;58.70;;;;;;5092746;28;20076;-65
2021/12/22 10:36:53;;;;;;;32.95;10.45;;;13.40;58.80;;;;;;5091389;28;20134;-65
2021/12/22 10:39:21;;;;;;;27.10;10.63;;;13.40;58.70;;;;;;5091384;28;20514;-66
2021/12/22 10:41:49;;;;;;;31.38;10.98;;;13.40;58.30;;;;;;5090133;28;20089;-65
2021/12/22 10:44:16;;;;;;;29.05;10.88;;;13.40;58.70;;;;;;5090127;28;20072;-66
2021/12/22 10:46:42;;;;;;;37.78;10.30;;;13.40;58.90;;;;;;5094916;28;20172;-65
2021/12/22 10:49:21;;;;;;;;;;;13.30;58.90;;;;;;5090592;28;20495;-63
2021/12/22 10:52:02;;;;;;;22.88;9.68;;;13.30;58.60;;;;;;5090168;28;20094;-65
2021/12/22 10:54:38;;;;;;;24.25;9.65;;;13.20;57.90;;;;;;5090031;28;20091;-65
2021/12/22 10:57:12;;;;;;;34.92;10.75;;;13.10;58.90;;;;;;5089925;28;20073;-64
2021/12/22 10:59:49;;;;;;;35.58;10.98;;;13.10;58.90;;;;;;5090607;28;21418;-65
2021/12/22 11:02:24;;;;;;;;;;;13.20;59.10;;;;;;5091526;28;20538;-65
2021/12/22 11:04:51;;;;;;;30.38;11.63;;;13.10;59.40;;;;;;5090197;28;20425;-65
2021/12/22 11:07:25;;;;;;;;;;;13.10;59.50;;;;;;5089527;28;20082;-66
2021/12/22 11:09:52;;;;;;;25.27;9.82;;;13.10;59.50;;;;;;5089412;28;20372;-65
2021/12/22 11:12:34;;;;;;;33.22;10.57;;;13.10;59.60;;;;;;5091232;28;20158;-65
2021/12/22 11:15:01;;;;;;;33.97;10.07;;;13.10;59.50;;;;;;5089293;28;20076;-68
2021/12/22 11:17:28;;;;;;;;;;;13.10;59.40;;;;;;5072352;28;20150;-63
2021/12/22 11:20:04;;;;;;;35.22;10.40;;;13.00;59.00;;;;;;5091379;28;20719;-66
2021/12/22 11:25:18;;;;;;;30.60;11.30;;;13.00;60.50;;;;;;5090790;28;20164;-67
2021/12/22 11:27:45;;;;;;;31.05;10.55;;;13.00;60.40;;;;;;5091620;28;20077;-65
2021/12/22 11:30:12;;;;;;;35.47;11.55;;;13.00;60.50;;;;;;5073495;28;20081;-67
2021/12/22 11:32:40;;;;;;;34.65;10.98;;;13.00;59.90;;;;;;5089542;28;20065;-67
2021/12/22 11:35:10;;;;;;;29.20;10.70;;;13.00;60.40;;;;;;5070815;28;20156;-65
2021/12/22 11:37:37;;;;;;;24.52;9.88;;;12.90;60.20;;;;;;5089168;28;20444;-66
2021/12/22 11:40:08;;;;;;;31.50;10.07;;;13.00;59.90;;;;;;5090272;28;20606;-66
2021/12/22 11:42:38;;;;;;;31.40;9.75;;;12.90;59.50;;;;;;5090274;28;20472;-67
2021/12/22 11:45:26;;;;;;;29.80;10.40;;;13.00;59.30;;;;;;5090446;28;20072;-67
2021/12/22 11:47:58;;;;;;;27.27;9.18;;;13.00;58.80;;;;;;5088039;28;20817;-66
2021/12/22 11:50:32;;;;;;;28.48;9.18;;;12.90;58.70;;;;;;5090865;28;20080;-66
2021/12/22 11:53:05;;;;;;;31.83;8.77;;;12.90;58.50;;;;;;5088067;28;20530;-66
2021/12/22 11:55:42;;;;;;;27.38;9.85;;;12.90;58.30;;;;;;5091252;28;20114;-67
2021/12/22 11:58:36;;;;;;;27.52;9.38;;;12.90;58.90;;;;;;5088665;28;20099;-66
2021/12/22 12:01:10;;;;;;;26.20;8.73;;;12.90;58.90;;;;;;5089448;28;20111;-66
2021/12/22 12:03:40;;;;;;;24.88;7.55;;;12.80;59.10;;;;;;5088862;28;20535;-66
2021/12/22 12:06:12;;;;;;;19.40;7.80;;;12.70;58.00;;;;;;5089140;28;20168;-66
2021/12/22 12:08:46;;;;;;;21.42;7.75;;;12.60;56.90;;;;;;5090738;28;20431;-65
2021/12/22 12:11:58;;;;;;;15.68;6.70;;;12.50;57.30;;;;;;5089933;28;20076;-66
2021/12/22 12:14:38;;;;;;;17.40;6.25;;;12.60;57.90;;;;;;5089066;28;20160;-66
2021/12/22 12:23:33;;;;;;;19.63;7.53;;;12.60;58.60;;;;;;5074878;28;20081;-66
2021/12/22 12:26:05;;;;;;;20.08;7.10;;;12.60;58.80;;;;;;5087590;28;20211;-65
2021/12/22 12:28:47;;;;;;;25.98;7.63;;;12.60;59.00;;;;;;5089079;28;20081;-66
2021/12/22 12:31:13;;;;;;;24.65;6.40;;;12.60;58.70;;;;;;5089045;28;20087;-66
2021/12/22 12:33:45;;;;;;;;;;;12.60;58.60;;;;;;5091130;28;20065;-65
2021/12/22 12:36:15;;;;;;;14.77;6.75;;;12.60;58.80;;;;;;5087848;28;19972;-65
2021/12/22 12:38:43;;;;;;;17.83;6.78;;;12.60;58.60;;;;;;5088497;28;20454;-66
2021/12/22 12:41:21;;;;;;;18.00;6.55;;;12.50;59.60;;;;;;5087196;28;20089;-66
2021/12/22 12:43:55;;;;;;;30.52;7.25;;;12.50;58.90;;;;;;5087444;28;20091;-66
2021/12/22 12:46:28;;;;;;;16.88;7.00;;;12.60;59.40;;;;;;5071985;28;20073;-67
2021/12/22 12:48:55;;;;;;;23.98;7.35;;;12.60;59.30;;;;;;5088084;28;20072;-66
2021/12/22 12:51:33;;;;;;;18.23;6.72;;;12.60;58.60;;;;;;5088850;28;20473;-66
2021/12/22 12:54:04;;;;;;;16.48;6.65;;;12.50;59.30;;;;;;5089184;28;20068;-67
2021/12/22 12:56:44;;;;;;;22.83;6.50;;;12.50;58.00;;;;;;5087373;28;20540;-66
2021/12/22 12:59:13;;;;;;;18.63;6.85;;;12.50;57.80;;;;;;5073188;28;20107;-65
2021/12/22 13:01:45;;;;;;;20.10;7.57;;;12.40;58.50;;;;;;5088389;28;20088;-67
2021/12/22 13:04:22;;;;;;;29.45;9.13;;;12.40;58.70;;;;;;5087782;28;20065;-65
2021/12/22 13:06:51;;;;;;;20.85;7.60;;;12.40;59.20;;;;;;5087461;28;20076;-66
2021/12/22 13:09:26;;;;;;;29.63;8.07;;;12.40;59.20;;;;;;5088919;28;20213;-65
2021/12/22 13:12:14;;;;;;;19.80;7.78;;;12.40;59.30;;;;;;5071254;28;20083;-65
2021/12/22 13:17:39;;;;;;;23.67;7.15;;;12.30;58.20;;;;;;5073552;28;20197;-65
2021/12/22 13:20:08;;;;;;;21.20;7.50;;;12.30;59.20;;;;;;5072289;28;20099;-65
2021/12/22 13:22:37;;;;;;;21.17;6.63;;;12.30;59.10;;;;;;5071302;28;20087;-67